createdAt,value
2018-06-01T04:10:03.922Z,19.56
2018-06-01T04:10:29.286Z,19.67
2018-06-01T04:10:54.863Z,19.66
2018-06-01T04:11:20.405Z,19.66
2018-06-01T04:11:45.909Z,19.69
2018-06-01T04:12:11.383Z,19.66
2018-06-01T04:12:36.848Z,19.63
2018-06-01T04:13:02.347Z,19.64
2018-06-01T04:13:27.769Z,19.64
2018-06-01T04:13:53.291Z,19.66
2018-06-01T04:14:18.735Z,19.66
2018-06-01T04:14:44.233Z,19.64
2018-06-01T04:15:09.806Z,19.63
2018-06-01T04:15:35.315Z,19.67
2018-06-01T04:16:00.827Z,19.69
2018-06-01T04:16:26.353Z,19.64
2018-06-01T04:16:51.767Z,19.62
2018-06-01T04:17:17.313Z,19.63
2018-06-01T04:17:42.804Z,19.67
2018-06-01T04:18:08.277Z,19.63
2018-06-01T04:18:33.746Z,19.73
2018-06-01T04:18:59.212Z,19.76
2018-06-01T04:19:24.746Z,19.71
2018-06-01T04:19:50.233Z,19.76
2018-06-01T04:20:15.694Z,19.73
2018-06-01T04:20:41.084Z,19.73
2018-06-01T04:21:06.645Z,19.76
2018-06-01T04:21:32.158Z,19.73
2018-06-01T04:21:57.800Z,19.77
2018-06-01T04:22:23.253Z,19.73
2018-06-01T04:22:48.717Z,19.76
2018-06-01T04:23:14.231Z,19.81
2018-06-01T04:23:39.731Z,19.82
2018-06-01T04:24:05.234Z,19.71
2018-06-01T04:24:30.670Z,19.82
2018-06-01T04:24:56.186Z,19.84
2018-06-01T04:25:21.639Z,19.85
2018-06-01T04:25:47.186Z,19.76
2018-06-01T04:26:12.632Z,19.84
2018-06-01T04:26:38.077Z,19.81
2018-06-01T04:27:03.582Z,19.79
2018-06-01T04:27:29.044Z,19.86
2018-06-01T04:27:54.555Z,19.88
2018-06-01T04:28:20.075Z,19.96
2018-06-01T04:28:45.508Z,20.02
2018-06-01T04:29:11.656Z,19.92
2018-06-01T04:29:37.107Z,20.02
2018-06-01T04:30:02.559Z,20
2018-06-01T04:30:28.020Z,20.1
2018-06-01T04:30:53.535Z,20.04
2018-06-01T04:31:18.999Z,20.1
2018-06-01T04:31:44.502Z,20.03
2018-06-01T04:32:10.003Z,20.13
2018-06-01T04:32:35.470Z,20.19
2018-06-01T04:33:00.916Z,20.22
2018-06-01T04:33:26.376Z,20.18
2018-06-01T04:33:51.862Z,20.21
2018-06-01T04:34:17.321Z,20.31
2018-06-01T04:34:42.826Z,20.28
2018-06-01T04:35:08.374Z,20.24
2018-06-01T04:35:33.754Z,20.25
2018-06-01T04:35:59.266Z,20.25
2018-06-01T04:36:24.724Z,20.31
2018-06-01T04:36:50.211Z,20.32
2018-06-01T04:37:15.693Z,20.29
2018-06-01T04:37:41.151Z,20.36
2018-06-01T04:38:06.627Z,20.39
2018-06-01T04:38:32.099Z,20.29
2018-06-01T04:38:57.685Z,20.31
2018-06-01T04:39:23.253Z,20.39
2018-06-01T04:39:48.750Z,20.36
2018-06-01T04:40:14.186Z,20.39
2018-06-01T04:40:39.654Z,20.41
2018-06-01T04:41:05.174Z,20.28
2018-06-01T04:41:30.688Z,20.4
2018-06-01T04:41:56.235Z,20.31
2018-06-01T04:42:21.651Z,20.4
2018-06-01T04:42:47.135Z,20.32
2018-06-01T04:43:12.613Z,20.37
2018-06-01T04:43:38.022Z,20.34
2018-06-01T04:44:03.526Z,20.41
2018-06-01T04:44:29.058Z,20.41
2018-06-01T04:44:54.552Z,20.44
2018-06-01T04:45:20.008Z,20.44
2018-06-01T04:45:45.480Z,20.41
2018-06-01T04:46:10.964Z,20.48
2018-06-01T04:46:36.459Z,20.51
2018-06-01T04:47:01.896Z,20.55
2018-06-01T04:47:27.344Z,20.56
2018-06-01T04:47:52.871Z,20.58
2018-06-01T04:48:18.373Z,20.7
2018-06-01T04:48:43.768Z,20.7
2018-06-01T04:49:09.276Z,20.74
2018-06-01T04:49:34.778Z,20.78
2018-06-01T04:50:00.250Z,20.84
2018-06-01T04:50:25.772Z,20.82
2018-06-01T04:50:51.218Z,20.87
2018-06-01T04:51:16.707Z,20.84
2018-06-01T04:51:42.332Z,20.96
2018-06-01T04:52:07.786Z,20.95
2018-06-01T04:52:33.259Z,21.02
2018-06-01T04:52:58.729Z,20.95
2018-06-01T04:53:24.265Z,21
2018-06-01T04:53:49.708Z,21.02
2018-06-01T04:54:15.225Z,21.09
2018-06-01T04:54:40.717Z,21.12
2018-06-01T04:55:06.235Z,21.09
2018-06-01T04:55:31.711Z,21.09
2018-06-01T04:55:57.275Z,21.15
2018-06-01T04:56:22.711Z,21.24
2018-06-01T04:56:48.187Z,21.24
2018-06-01T04:57:13.689Z,21.27
2018-06-01T04:57:39.203Z,21.25
2018-06-01T04:58:04.648Z,21.3
2018-06-01T04:58:30.165Z,21.3
2018-06-01T04:58:55.625Z,21.25
2018-06-01T04:59:21.098Z,21.29
2018-06-01T04:59:46.596Z,21.32
2018-06-01T05:00:12.086Z,21.27
2018-06-01T05:00:37.565Z,21.33
2018-06-01T05:01:03.034Z,21.29
2018-06-01T05:01:28.529Z,21.25
2018-06-01T05:01:54.060Z,21.39
2018-06-01T05:02:19.573Z,21.4
2018-06-01T05:02:45.075Z,21.25
2018-06-01T05:03:10.593Z,21.3
2018-06-01T05:03:36.089Z,21.35
2018-06-01T05:04:01.585Z,21.39
2018-06-01T05:04:27.071Z,21.35
2018-06-01T05:04:52.553Z,21.4
2018-06-01T05:05:18.017Z,21.46
2018-06-01T05:05:43.515Z,21.42
2018-06-01T05:06:08.975Z,21.43
2018-06-01T05:06:34.466Z,21.45
2018-06-01T05:06:59.958Z,21.43
2018-06-01T05:07:25.508Z,21.4
2018-06-01T05:07:50.979Z,21.43
2018-06-01T05:08:16.496Z,21.4
2018-06-01T05:08:41.955Z,21.37
2018-06-01T05:09:07.472Z,21.32
2018-06-01T05:09:32.982Z,21.35
2018-06-01T05:09:58.461Z,21.25
2018-06-01T05:10:23.940Z,21.29
2018-06-01T05:10:49.456Z,21.43
2018-06-01T05:11:14.943Z,21.29
2018-06-01T05:11:40.449Z,21.24
2018-06-01T05:12:05.931Z,21.25
2018-06-01T05:12:31.510Z,21.27
2018-06-01T05:12:56.974Z,21.22
2018-06-01T05:13:22.435Z,21.32
2018-06-01T05:13:47.967Z,21.33
2018-06-01T05:14:13.428Z,21.25
2018-06-01T05:14:38.893Z,21.22
2018-06-01T05:15:04.377Z,21.24
2018-06-01T05:15:29.823Z,21.3
2018-06-01T05:15:55.277Z,21.3
2018-06-01T05:16:20.747Z,21.22
2018-06-01T05:16:46.204Z,21.3
2018-06-01T05:17:11.706Z,21.32
2018-06-01T05:17:37.450Z,21.29
2018-06-01T05:18:02.928Z,21.21
2018-06-01T05:18:28.480Z,21.25
2018-06-01T05:18:54.102Z,21.35
2018-06-01T05:19:19.589Z,21.42
2018-06-01T05:19:45.053Z,21.22
2018-06-01T05:20:10.526Z,21.29
2018-06-01T05:20:36.009Z,21.36
2018-06-01T05:21:01.461Z,21.37
2018-06-01T05:21:26.947Z,21.24
2018-06-01T05:21:52.458Z,21.33
2018-06-01T05:22:17.982Z,21.32
2018-06-01T05:22:43.438Z,21.32
2018-06-01T05:23:09.053Z,21.33
2018-06-01T05:23:34.416Z,21.24
2018-06-01T05:23:59.989Z,21.24
2018-06-01T05:24:25.433Z,21.29
2018-06-01T05:24:50.885Z,21.3
2018-06-01T05:25:16.593Z,21.24
2018-06-01T05:25:41.953Z,21.35
2018-06-01T05:26:07.509Z,21.27
2018-06-01T05:26:32.990Z,21.27
2018-06-01T05:26:58.529Z,21.27
2018-06-01T05:27:24.107Z,21.25
2018-06-01T05:27:49.494Z,21.27
2018-06-01T05:28:14.925Z,21.24
2018-06-01T05:28:40.392Z,21.35
2018-06-01T05:29:05.916Z,21.29
2018-06-01T05:29:31.429Z,21.33
2018-06-01T05:29:56.963Z,21.27
2018-06-01T05:30:22.441Z,21.27
2018-06-01T05:30:47.967Z,21.29
2018-06-01T05:31:13.455Z,21.25
2018-06-01T05:31:38.931Z,21.32
2018-06-01T05:32:04.431Z,21.25
2018-06-01T05:32:30.039Z,21.25
2018-06-01T05:32:55.659Z,21.32
2018-06-01T05:33:21.156Z,21.3
2018-06-01T05:33:46.648Z,21.27
2018-06-01T05:34:12.143Z,21.3
2018-06-01T05:34:37.640Z,21.29
2018-06-01T05:35:03.182Z,21.32
2018-06-01T05:35:28.707Z,21.29
2018-06-01T05:35:54.155Z,21.36
2018-06-01T05:36:19.659Z,21.32
2018-06-01T05:36:45.172Z,21.29
2018-06-01T05:37:10.671Z,21.22
2018-06-01T05:37:36.167Z,21.32
2018-06-01T05:38:01.645Z,21.27
2018-06-01T05:38:27.154Z,21.33
2018-06-01T05:38:52.749Z,21.33
2018-06-01T05:39:18.146Z,21.33
2018-06-01T05:39:43.611Z,21.33
2018-06-01T05:40:09.086Z,21.39
2018-06-01T05:40:34.559Z,21.3
2018-06-01T05:41:00.038Z,21.27
2018-06-01T05:41:25.533Z,21.35
2018-06-01T05:42:29.400Z,21.21
2018-06-01T05:42:54.757Z,21.3
2018-06-01T05:43:20.217Z,21.27
2018-06-01T05:43:45.704Z,21.32
2018-06-01T05:44:11.289Z,21.3
2018-06-01T05:44:36.761Z,21.33
2018-06-01T05:45:02.240Z,21.24
2018-06-01T05:45:27.753Z,21.29
2018-06-01T05:45:53.245Z,21.25
2018-06-01T05:46:18.707Z,21.25
2018-06-01T05:46:44.269Z,21.24
2018-06-01T05:47:09.724Z,21.29
2018-06-01T05:47:35.278Z,21.27
2018-06-01T05:48:00.689Z,21.29
2018-06-01T05:48:26.191Z,21.3
2018-06-01T05:48:51.663Z,21.25
2018-06-01T05:49:17.163Z,21.3
2018-06-01T05:49:42.627Z,21.25
2018-06-01T05:50:08.105Z,21.24
2018-06-01T05:50:33.517Z,21.27
2018-06-01T05:50:59.037Z,21.22
2018-06-01T05:51:24.504Z,21.32
2018-06-01T05:51:50.119Z,21.24
2018-06-01T05:52:15.632Z,21.32
2018-06-01T05:52:41.098Z,21.32
2018-06-01T05:53:06.592Z,21.3
2018-06-01T05:53:32.115Z,21.25
2018-06-01T05:53:57.679Z,21.3
2018-06-01T05:54:23.247Z,21.32
2018-06-01T05:54:48.669Z,21.35
2018-06-01T05:55:14.188Z,21.33
2018-06-01T05:55:39.696Z,21.35
2018-06-01T05:56:05.154Z,21.3
2018-06-01T05:56:30.797Z,21.35
2018-06-01T05:57:34.384Z,21.37
2018-06-01T05:57:59.880Z,21.39
2018-06-01T05:58:25.386Z,21.33
2018-06-01T05:58:50.898Z,21.24
2018-06-01T05:59:16.405Z,21.4
2018-06-01T05:59:41.917Z,21.22
2018-06-01T06:00:07.494Z,21.25
2018-06-01T06:00:33.062Z,21.35
2018-06-01T06:00:58.553Z,21.39
2018-06-01T06:01:24.009Z,21.4
2018-06-01T06:01:49.477Z,21.42
2018-06-01T06:02:14.956Z,21.39
2018-06-01T06:02:40.510Z,21.45
2018-06-01T06:03:05.997Z,21.43
2018-06-01T06:04:09.604Z,21.54
2018-06-01T06:04:35.111Z,21.51
2018-06-01T06:05:00.625Z,21.54
2018-06-01T06:05:26.119Z,21.54
2018-06-01T06:05:51.622Z,21.54
2018-06-01T06:06:17.126Z,21.6
2018-06-01T06:06:42.631Z,21.54
2018-06-01T06:07:08.109Z,21.57
2018-06-01T06:07:33.625Z,21.55
2018-06-01T06:07:59.109Z,21.52
2018-06-01T06:08:24.665Z,21.64
2018-06-01T06:08:50.159Z,21.69
2018-06-01T06:09:15.734Z,21.76
2018-06-01T06:09:41.252Z,21.69
2018-06-01T06:10:06.751Z,21.73
2018-06-01T06:10:32.272Z,21.76
2018-06-01T06:10:57.791Z,21.77
2018-06-01T06:11:23.293Z,21.83
2018-06-01T06:11:48.744Z,21.77
2018-06-01T06:12:14.203Z,21.93
2018-06-01T06:12:39.656Z,21.96
2018-06-01T06:13:05.242Z,22
2018-06-01T06:13:30.751Z,22.04
2018-06-01T06:13:56.276Z,22.07
2018-06-01T06:14:21.774Z,22.07
2018-06-01T06:14:47.260Z,22.02
2018-06-01T06:15:45.789Z,22.2
2018-06-01T06:16:11.284Z,22.23
2018-06-01T06:16:36.795Z,22.18
2018-06-01T06:17:02.283Z,22.32
2018-06-01T06:17:27.797Z,22.29
2018-06-01T06:17:53.265Z,22.29
2018-06-01T06:18:18.753Z,22.3
2018-06-01T06:18:44.240Z,22.36
2018-06-01T06:19:09.758Z,22.39
2018-06-01T06:19:35.270Z,22.45
2018-06-01T06:20:00.725Z,22.39
2018-06-01T06:20:26.243Z,22.39
2018-06-01T06:20:51.716Z,22.51
2018-06-01T06:21:17.226Z,22.51
2018-06-01T06:21:42.813Z,22.54
2018-06-01T06:22:08.285Z,22.53
2018-06-01T06:22:33.789Z,22.55
2018-06-01T06:22:59.247Z,22.5
2018-06-01T06:23:24.726Z,22.55
2018-06-01T06:23:50.233Z,22.47
2018-06-01T06:24:15.712Z,22.5
2018-06-01T06:24:41.245Z,22.51
2018-06-01T06:25:06.719Z,22.51
2018-06-01T06:25:32.223Z,22.54
2018-06-01T06:25:57.715Z,22.68
2018-06-01T06:26:23.207Z,22.73
2018-06-01T06:26:48.742Z,22.69
2018-06-01T06:27:14.239Z,22.7
2018-06-01T06:27:39.748Z,22.68
2018-06-01T06:28:05.270Z,22.72
2018-06-01T06:28:30.780Z,22.81
2018-06-01T06:28:56.248Z,22.76
2018-06-01T06:29:21.743Z,22.87
2018-06-01T06:29:47.223Z,22.88
2018-06-01T06:30:12.797Z,23
2018-06-01T06:30:38.291Z,23.02
2018-06-01T06:31:03.779Z,23.05
2018-06-01T06:31:29.350Z,23.08
2018-06-01T06:31:54.783Z,23.09
2018-06-01T06:32:20.320Z,23.2
2018-06-01T06:32:45.801Z,23.21
2018-06-01T06:33:11.313Z,23.24
2018-06-01T06:33:36.781Z,23.36
2018-06-01T06:34:02.277Z,23.46
2018-06-01T06:34:27.790Z,23.4
2018-06-01T06:34:53.348Z,23.56
2018-06-01T06:35:18.888Z,23.56
2018-06-01T06:35:44.385Z,23.65
2018-06-01T06:36:09.884Z,23.73
2018-06-01T06:36:35.377Z,23.8
2018-06-01T06:37:00.904Z,23.86
2018-06-01T06:37:26.353Z,23.88
2018-06-01T06:37:51.877Z,24.01
2018-06-01T06:38:17.375Z,24.02
2018-06-01T06:38:42.871Z,24.08
2018-06-01T06:39:08.370Z,24.13
2018-06-01T06:39:33.935Z,24.26
2018-06-01T06:39:59.432Z,24.3
2018-06-01T06:40:24.918Z,24.4
2018-06-01T06:40:50.442Z,24.47
2018-06-01T06:41:15.917Z,24.35
2018-06-01T06:41:41.450Z,24.47
2018-06-01T06:42:07.018Z,24.54
2018-06-01T06:42:32.473Z,24.53
2018-06-01T06:42:57.965Z,24.58
2018-06-01T06:43:23.471Z,24.66
2018-06-01T06:43:49.084Z,24.65
2018-06-01T06:44:14.639Z,24.66
2018-06-01T06:44:40.115Z,24.63
2018-06-01T06:45:05.585Z,24.68
2018-06-01T06:45:31.077Z,24.73
2018-06-01T06:45:56.736Z,24.74
2018-06-01T06:46:22.155Z,24.74
2018-06-01T06:46:47.668Z,24.74
2018-06-01T06:47:13.150Z,24.86
2018-06-01T06:47:38.643Z,24.81
2018-06-01T06:48:04.142Z,24.81
2018-06-01T06:48:29.619Z,24.88
2018-06-01T06:48:55.141Z,24.85
2018-06-01T06:49:20.647Z,24.91
2018-06-01T06:49:46.148Z,24.93
2018-06-01T06:50:11.633Z,24.98
2018-06-01T06:50:37.112Z,24.99
2018-06-01T06:51:02.581Z,24.92
2018-06-01T06:51:28.097Z,25.03
2018-06-01T06:51:53.530Z,25.03
2018-06-01T06:52:19.039Z,25.03
2018-06-01T06:52:44.536Z,24.99
2018-06-01T06:53:10.040Z,25.01
2018-06-01T06:53:35.498Z,25.07
2018-06-01T06:54:01.532Z,25.1
2018-06-01T06:54:27.006Z,25.18
2018-06-01T06:54:52.600Z,25.11
2018-06-01T06:55:18.076Z,25.18
2018-06-01T06:55:43.543Z,25.26
2018-06-01T06:56:09.097Z,25.29
2018-06-01T06:56:34.532Z,25.26
2018-06-01T06:57:00.080Z,25.25
2018-06-01T06:57:25.551Z,25.32
2018-06-01T06:57:51.209Z,25.35
2018-06-01T06:58:16.749Z,25.4
2018-06-01T06:58:42.235Z,25.38
2018-06-01T06:59:07.732Z,25.44
2018-06-01T06:59:33.419Z,25.35
2018-06-01T06:59:58.970Z,25.5
2018-06-01T07:00:24.445Z,25.54
2018-06-01T07:00:49.918Z,25.54
2018-06-01T07:01:15.498Z,25.5
2018-06-01T07:01:40.932Z,25.51
2018-06-01T07:02:06.407Z,25.62
2018-06-01T07:02:31.869Z,25.66
2018-06-01T07:02:57.378Z,25.65
2018-06-01T07:03:22.890Z,25.7
2018-06-01T07:03:48.487Z,25.73
2018-06-01T07:04:13.993Z,25.8
2018-06-01T07:04:39.808Z,25.78
2018-06-01T07:05:05.314Z,25.9
2018-06-01T07:05:30.904Z,25.96
2018-06-01T07:05:56.482Z,25.9
2018-06-01T07:06:22.005Z,25.9
2018-06-01T07:06:47.635Z,25.96
2018-06-01T07:07:13.188Z,25.91
2018-06-01T07:07:38.757Z,25.98
2018-06-01T07:08:04.207Z,25.96
2018-06-01T07:08:29.691Z,25.96
2018-06-01T07:08:55.099Z,25.96
2018-06-01T07:09:20.604Z,25.88
2018-06-01T07:09:46.164Z,25.98
2018-06-01T07:10:11.662Z,26.03
2018-06-01T07:10:37.176Z,26.02
2018-06-01T07:11:02.643Z,25.9
2018-06-01T07:11:28.127Z,25.84
2018-06-01T07:11:53.793Z,25.87
2018-06-01T07:12:19.193Z,25.98
2018-06-01T07:12:44.738Z,25.95
2018-06-01T07:13:10.328Z,25.96
2018-06-01T07:13:36.079Z,25.98
2018-06-01T07:14:01.578Z,25.98
2018-06-01T07:14:27.071Z,25.99
2018-06-01T07:14:52.689Z,25.95
2018-06-01T07:15:18.451Z,25.99
2018-06-01T07:15:43.898Z,25.98
2018-06-01T07:16:09.524Z,25.95
2018-06-01T07:16:35.035Z,25.96
2018-06-01T07:17:01.123Z,26.05
2018-06-01T07:17:26.822Z,25.98
2018-06-01T07:17:52.705Z,25.95
2018-06-01T07:18:18.353Z,26
2018-06-01T07:18:43.758Z,25.96
2018-06-01T07:19:09.279Z,25.93
2018-06-01T07:19:34.985Z,25.9
2018-06-01T07:20:00.609Z,25.88
2018-06-01T07:20:26.250Z,25.8
2018-06-01T07:20:51.665Z,25.85
2018-06-01T07:21:17.139Z,25.83
2018-06-01T07:21:42.584Z,25.78
2018-06-01T07:22:08.081Z,25.8
2018-06-01T07:22:33.616Z,25.77
2018-06-01T07:22:59.035Z,25.72
2018-06-01T07:23:24.495Z,25.6
2018-06-01T07:23:49.977Z,25.66
2018-06-01T07:24:15.465Z,25.51
2018-06-01T07:24:40.957Z,25.54
2018-06-01T07:25:06.469Z,25.46
2018-06-01T07:25:31.965Z,25.41
2018-06-01T07:25:57.432Z,25.38
2018-06-01T07:26:22.904Z,25.31
2018-06-01T07:26:48.452Z,25.25
2018-06-01T07:27:13.857Z,25.22
2018-06-01T07:27:39.420Z,25.22
2018-06-01T07:28:04.896Z,25.08
2018-06-01T07:28:30.408Z,24.99
2018-06-01T07:28:55.856Z,24.91
2018-06-01T07:29:21.326Z,24.95
2018-06-01T07:29:46.813Z,24.88
2018-06-01T07:30:12.313Z,24.78
2018-06-01T07:30:37.792Z,24.78
2018-06-01T07:31:03.281Z,24.76
2018-06-01T07:31:28.819Z,24.69
2018-06-01T07:31:54.212Z,24.66
2018-06-01T07:32:19.702Z,24.66
2018-06-01T07:32:45.209Z,24.61
2018-06-01T07:33:10.652Z,24.61
2018-06-01T07:33:36.116Z,24.63
2018-06-01T07:34:01.611Z,24.54
2018-06-01T07:34:27.114Z,24.51
2018-06-01T07:34:52.600Z,24.39
2018-06-01T07:35:18.016Z,24.39
2018-06-01T07:35:43.511Z,24.48
2018-06-01T07:36:08.991Z,24.51
2018-06-01T07:36:34.524Z,24.38
2018-06-01T07:36:59.969Z,24.42
2018-06-01T07:37:25.476Z,24.39
2018-06-01T07:37:50.940Z,24.38
2018-06-01T07:38:16.442Z,24.39
2018-06-01T07:38:41.934Z,24.28
2018-06-01T07:39:07.399Z,24.29
2018-06-01T07:39:32.846Z,24.3
2018-06-01T07:39:58.809Z,24.29
2018-06-01T07:40:24.263Z,24.3
2018-06-01T07:40:49.793Z,24.3
2018-06-01T07:41:15.216Z,24.26
2018-06-01T07:41:40.783Z,24.23
2018-06-01T07:42:06.324Z,24.26
2018-06-01T07:42:31.925Z,24.28
2018-06-01T07:42:57.575Z,24.24
2018-06-01T07:43:22.973Z,24.23
2018-06-01T07:43:48.577Z,24.18
2018-06-01T07:44:14.091Z,24.13
2018-06-01T07:44:39.638Z,24.18
2018-06-01T07:45:05.138Z,24.18
2018-06-01T07:45:30.724Z,24.18
2018-06-01T07:45:56.243Z,24.14
2018-06-01T07:46:21.751Z,24.11
2018-06-01T07:46:47.224Z,24.11
2018-06-01T07:47:12.774Z,24.11
2018-06-01T07:47:38.283Z,24.08
2018-06-01T07:48:03.854Z,24.01
2018-06-01T07:48:29.328Z,24.02
2018-06-01T07:48:54.806Z,23.98
2018-06-01T07:49:20.328Z,24.01
2018-06-01T07:49:45.797Z,24.01
2018-06-01T07:50:11.334Z,24.03
2018-06-01T07:50:36.791Z,23.91
2018-06-01T07:51:02.285Z,23.91
2018-06-01T07:51:27.747Z,23.91
2018-06-01T07:51:53.281Z,23.84
2018-06-01T07:52:56.894Z,23.73
2018-06-01T07:53:22.394Z,23.68
2018-06-01T07:53:47.886Z,23.66
2018-06-01T07:54:13.392Z,23.61
2018-06-01T07:54:38.926Z,23.55
2018-06-01T07:55:04.303Z,23.55
2018-06-01T07:55:29.793Z,23.51
2018-06-01T07:55:55.316Z,23.44
2018-06-01T07:56:20.759Z,23.43
2018-06-01T07:56:46.235Z,23.39
2018-06-01T07:57:11.683Z,23.32
2018-06-01T07:57:37.165Z,23.23
2018-06-01T07:58:02.602Z,23.23
2018-06-01T07:58:28.066Z,23.31
2018-06-01T07:58:53.543Z,23.09
2018-06-01T07:59:19.024Z,23.12
2018-06-01T07:59:44.512Z,23.1
2018-06-01T08:00:10.029Z,23.09
2018-06-01T08:00:35.495Z,22.96
2018-06-01T08:01:00.976Z,22.98
2018-06-01T08:01:26.467Z,22.88
2018-06-01T08:01:52.006Z,22.84
2018-06-01T08:02:17.423Z,22.8
2018-06-01T08:02:42.891Z,22.76
2018-06-01T08:03:08.394Z,22.78
2018-06-01T08:03:33.920Z,22.72
2018-06-01T08:03:59.377Z,22.73
2018-06-01T08:04:24.914Z,22.66
2018-06-01T08:04:50.343Z,22.69
2018-06-01T08:05:15.846Z,22.63
2018-06-01T08:05:41.326Z,22.55
2018-06-01T08:06:06.841Z,22.6
2018-06-01T08:06:32.326Z,22.5
2018-06-01T08:06:57.779Z,22.51
2018-06-01T08:07:23.285Z,22.43
2018-06-01T08:07:48.993Z,22.43
2018-06-01T08:08:14.493Z,22.35
2018-06-01T08:08:39.933Z,22.32
2018-06-01T08:09:05.494Z,22.29
2018-06-01T08:09:30.884Z,22.22
2018-06-01T08:09:56.370Z,22.18
2018-06-01T08:10:21.928Z,22.18
2018-06-01T08:10:47.326Z,22.22
2018-06-01T08:11:12.812Z,22.18
2018-06-01T08:11:38.314Z,22.06
2018-06-01T08:12:03.798Z,22.04
2018-06-01T08:12:29.224Z,22.1
2018-06-01T08:12:54.730Z,21.98
2018-06-01T08:13:20.155Z,22.02
2018-06-01T08:13:45.716Z,21.96
2018-06-01T08:14:11.265Z,22.06
2018-06-01T08:14:37.015Z,21.96
2018-06-01T08:15:02.649Z,22.06
2018-06-01T08:15:28.549Z,21.98
2018-06-01T08:15:53.999Z,22.04
2018-06-01T08:16:19.570Z,21.99
2018-06-01T08:16:45.135Z,22.08
2018-06-01T08:17:10.670Z,22.08
2018-06-01T08:17:36.802Z,22
2018-06-01T08:18:02.138Z,22.02
2018-06-01T08:18:27.679Z,21.99
2018-06-01T08:18:53.225Z,22.04
2018-06-01T08:19:18.703Z,22.04
2018-06-01T08:19:44.227Z,22.08
2018-06-01T08:20:09.621Z,22.11
2018-06-01T08:20:35.157Z,22.13
2018-06-01T08:21:00.664Z,22.11
2018-06-01T08:21:26.284Z,22.1
2018-06-01T08:21:51.862Z,22.11
2018-06-01T08:22:17.940Z,22.11
2018-06-01T08:22:43.534Z,22.02
2018-06-01T08:23:09.126Z,22.13
2018-06-01T08:23:34.642Z,22.17
2018-06-01T08:24:00.382Z,22.2
2018-06-01T08:24:25.847Z,22.17
2018-06-01T08:24:51.378Z,22.15
2018-06-01T08:25:16.887Z,22.23
2018-06-01T08:25:42.320Z,22.25
2018-06-01T08:26:07.788Z,22.2
2018-06-01T08:26:33.370Z,22.2
2018-06-01T08:26:58.947Z,22.23
2018-06-01T08:27:24.566Z,22.28
2018-06-01T08:27:50.220Z,22.23
2018-06-01T08:28:16.268Z,22.3
2018-06-01T08:28:41.871Z,22.23
2018-06-01T08:29:07.957Z,22.25
2018-06-01T08:29:33.485Z,22.23
2018-06-01T08:29:58.968Z,22.22
2018-06-01T08:30:24.447Z,22.23
2018-06-01T08:30:50.078Z,22.23
2018-06-01T08:31:15.865Z,22.36
2018-06-01T08:31:41.630Z,22.32
2018-06-01T08:32:07.090Z,22.22
2018-06-01T08:32:32.601Z,22.26
2018-06-01T08:32:58.039Z,22.26
2018-06-01T08:33:23.566Z,22.26
2018-06-01T08:33:49.455Z,22.22
2018-06-01T08:34:14.936Z,22.18
2018-06-01T08:34:40.628Z,22.26
2018-06-01T08:35:06.165Z,22.23
2018-06-01T08:35:31.552Z,22.3
2018-06-01T08:35:57.259Z,22.25
2018-06-01T08:36:22.724Z,22.29
2018-06-01T08:36:48.308Z,22.33
2018-06-01T08:37:13.752Z,22.36
2018-06-01T08:37:39.415Z,22.35
2018-06-01T08:38:04.899Z,22.18
2018-06-01T08:38:30.438Z,22.26
2018-06-01T08:38:55.992Z,22.35
2018-06-01T08:39:21.569Z,22.35
2018-06-01T08:39:47.391Z,22.35
2018-06-01T08:40:13.058Z,22.33
2018-06-01T08:40:38.617Z,22.2
2018-06-01T08:41:04.432Z,22.23
2018-06-01T08:41:29.841Z,22.23
2018-06-01T08:41:55.331Z,22.18
2018-06-01T08:42:20.892Z,22.15
2018-06-01T08:42:46.596Z,22.23
2018-06-01T08:43:12.173Z,22.2
2018-06-01T08:43:37.620Z,22.2
2018-06-01T08:44:03.138Z,22.23
2018-06-01T08:44:28.593Z,22.23
2018-06-01T08:44:54.098Z,22.23
2018-06-01T08:45:19.575Z,22.26
2018-06-01T08:45:45.023Z,22.26
2018-06-01T08:46:10.609Z,22.15
2018-06-01T08:46:36.039Z,22.14
2018-06-01T08:47:01.599Z,22.23
2018-06-01T08:47:27.186Z,22.23
2018-06-01T08:47:52.683Z,22.22
2018-06-01T08:48:18.165Z,22.06
2018-06-01T08:48:43.761Z,22.13
2018-06-01T08:49:09.341Z,22.1
2018-06-01T08:49:34.982Z,22.04
2018-06-01T08:50:01.437Z,22.04
2018-06-01T08:50:27.070Z,22.2
2018-06-01T08:50:52.492Z,22.04
2018-06-01T08:51:18.115Z,22.11
2018-06-01T08:51:43.811Z,22.13
2018-06-01T08:52:09.224Z,22.11
2018-06-01T08:52:34.902Z,22.17
2018-06-01T08:53:00.481Z,22.11
2018-06-01T08:53:26.009Z,22.1
2018-06-01T08:53:51.545Z,22.11
2018-06-01T08:54:17.083Z,22.1
2018-06-01T08:54:42.643Z,22.11
2018-06-01T08:55:08.364Z,22.1
2018-06-01T08:55:33.780Z,22.1
2018-06-01T08:55:59.351Z,22.02
2018-06-01T08:56:25.167Z,22.11
2018-06-01T08:56:50.729Z,21.99
2018-06-01T08:57:16.542Z,22.04
2018-06-01T08:57:42.082Z,22.14
2018-06-01T08:58:07.616Z,22.13
2018-06-01T08:58:33.167Z,22.13
2018-06-01T08:58:58.877Z,22.11
2018-06-01T08:59:24.345Z,22.06
2018-06-01T08:59:50.017Z,22.11
2018-06-01T09:00:15.488Z,22.14
2018-06-01T09:00:40.977Z,22.13
2018-06-01T09:01:06.547Z,22.04
2018-06-01T09:01:32.032Z,22.08
2018-06-01T09:01:57.568Z,22.13
2018-06-01T09:02:23.033Z,22.07
2018-06-01T09:02:48.642Z,22.1
2018-06-01T09:03:14.027Z,22.08
2018-06-01T09:03:39.556Z,22.02
2018-06-01T09:04:05.038Z,21.99
2018-06-01T09:04:30.685Z,22.04
2018-06-01T09:04:56.335Z,22.02
2018-06-01T09:05:21.938Z,22.06
2018-06-01T09:05:47.556Z,22
2018-06-01T09:06:13.083Z,22
2018-06-01T09:06:38.561Z,21.91
2018-06-01T09:07:03.999Z,21.82
2018-06-01T09:07:29.499Z,21.95
2018-06-01T09:07:54.961Z,21.8
2018-06-01T09:08:20.396Z,21.91
2018-06-01T09:08:45.882Z,21.83
2018-06-01T09:09:11.371Z,21.82
2018-06-01T09:09:36.895Z,21.8
2018-06-01T09:10:02.418Z,21.73
2018-06-01T09:10:27.852Z,21.82
2018-06-01T09:10:53.395Z,21.79
2018-06-01T09:11:18.843Z,21.83
2018-06-01T09:11:44.319Z,21.83
2018-06-01T09:12:09.809Z,21.77
2018-06-01T09:12:35.252Z,21.83
2018-06-01T09:13:00.720Z,21.72
2018-06-01T09:13:26.193Z,21.72
2018-06-01T09:13:51.666Z,21.67
2018-06-01T09:14:17.151Z,21.66
2018-06-01T09:14:42.619Z,21.72
2018-06-01T09:15:08.138Z,21.62
2018-06-01T09:15:33.581Z,21.61
2018-06-01T09:15:59.074Z,21.61
2018-06-01T09:16:24.588Z,21.58
2018-06-01T09:16:50.116Z,21.6
2018-06-01T09:17:15.541Z,21.58
2018-06-01T09:17:41.055Z,21.48
2018-06-01T09:18:06.561Z,21.51
2018-06-01T09:18:32.063Z,21.58
2018-06-01T09:18:57.548Z,21.48
2018-06-01T09:19:23.029Z,21.51
2018-06-01T09:19:48.493Z,21.51
2018-06-01T09:20:13.966Z,21.45
2018-06-01T09:20:39.434Z,21.51
2018-06-01T09:21:04.923Z,21.43
2018-06-01T09:21:30.395Z,21.45
2018-06-01T09:21:55.914Z,21.45
2018-06-01T09:22:21.391Z,21.4
2018-06-01T09:22:46.894Z,21.35
2018-06-01T09:23:12.413Z,21.37
2018-06-01T09:23:37.907Z,21.25
2018-06-01T09:24:03.392Z,21.32
2018-06-01T09:24:28.874Z,21.37
2018-06-01T09:24:54.469Z,21.27
2018-06-01T09:25:19.964Z,21.17
2018-06-01T09:25:45.472Z,21.21
2018-06-01T09:26:10.977Z,21.15
2018-06-01T09:26:36.495Z,21.17
2018-06-01T09:27:01.986Z,21.07
2018-06-01T09:27:27.526Z,21.21
2018-06-01T09:27:53.029Z,21.07
2018-06-01T09:28:18.548Z,21.07
2018-06-01T09:28:44.009Z,21.11
2018-06-01T09:29:09.496Z,21.09
2018-06-01T09:29:35.019Z,20.97
2018-06-01T09:30:00.503Z,20.99
2018-06-01T09:30:26.007Z,21.02
2018-06-01T09:30:51.527Z,20.99
2018-06-01T09:31:17.022Z,20.99
2018-06-01T09:31:42.521Z,20.92
2018-06-01T09:32:46.153Z,20.99
2018-06-01T09:33:11.654Z,20.97
2018-06-01T09:33:37.157Z,20.96
2018-06-01T09:34:02.661Z,20.95
2018-06-01T09:34:28.227Z,20.87
2018-06-01T09:34:53.666Z,20.84
2018-06-01T09:35:19.160Z,20.97
2018-06-01T09:35:44.653Z,20.92
2018-06-01T09:36:10.166Z,20.84
2018-06-01T09:36:35.706Z,20.82
2018-06-01T09:37:01.166Z,20.84
2018-06-01T09:37:26.667Z,20.87
2018-06-01T09:37:52.131Z,20.87
2018-06-01T09:39:00.813Z,20.84
2018-06-01T09:39:26.328Z,20.8
2018-06-01T09:39:51.829Z,20.81
2018-06-01T09:40:17.323Z,20.82
2018-06-01T09:40:42.821Z,20.81
2018-06-01T09:41:08.327Z,20.8
2018-06-01T09:41:33.876Z,20.7
2018-06-01T09:41:59.363Z,20.74
2018-06-01T09:42:24.848Z,20.63
2018-06-01T09:42:50.368Z,20.69
2018-06-01T09:43:15.821Z,20.7
2018-06-01T09:43:41.348Z,20.67
2018-06-01T09:44:06.854Z,20.67
2018-06-01T09:44:32.340Z,20.75